Time;durP1;ratioP1;P1;durP2;ratioP2;P2;SDS_P1;SDS_P2;PMS_P1;PMS_P2;Temp;Humidity;BMP_temperature;BMP_pressure;BME280_temperature;BME280_humidity;BME280_pressure;Samples;Min_cycle;Max_cycle;Signal;HPM_P1;HPM_P2
2021/08/09 00:01:08;;;;;;;5.00;1.80;;;15.90;1.00;;;;;;5031226;28;20444;-73
2021/08/09 00:03:36;;;;;;;2.10;1.60;;;15.90;1.00;;;;;;5030944;28;20923;-73
2021/08/09 00:06:05;;;;;;;2.00;1.80;;;16.00;1.00;;;;;;5031165;28;20417;-72
2021/08/09 00:08:34;;;;;;;3.00;2.10;;;15.90;1.00;;;;;;5046743;28;20455;-73
2021/08/09 00:11:02;;;;;;;2.30;2.10;;;15.80;1.00;;;;;;5030734;28;20440;-73
2021/08/09 00:13:30;;;;;;;3.30;1.87;;;15.80;25.70;;;;;;5031118;28;20428;-73
2021/08/09 00:16:00;;;;;;;2.50;2.30;;;15.70;99.90;;;;;;5031215;28;20820;-72
2021/08/09 00:18:28;;;;;;;3.57;2.60;;;15.70;99.90;;;;;;5031464;28;20529;-72
2021/08/09 00:20:57;;;;;;;2.50;2.30;;;15.70;99.90;;;;;;5031082;28;20477;-72
2021/08/09 00:23:25;;;;;;;3.40;1.83;;;15.60;25.90;;;;;;5038818;28;20510;-73
2021/08/09 00:25:55;;;;;;;2.10;1.50;;;15.50;99.90;;;;;;5049893;28;20442;-73
2021/08/09 00:28:23;;;;;;;2.30;2.10;;;15.40;99.90;;;;;;5052443;28;20435;-73
2021/08/09 00:30:52;;;;;;;2.53;1.97;;;15.40;1.00;;;;;;5055349;28;20458;-73
2021/08/09 00:33:21;;;;;;;2.43;1.90;;;15.40;1.00;;;;;;5051437;28;20435;-72
2021/08/09 00:35:50;;;;;;;2.47;1.80;;;15.30;1.00;;;;;;5067226;28;20463;-73
2021/08/09 00:38:18;;;;;;;4.60;2.20;;;15.20;1.00;;;;;;5046725;28;20499;-72
2021/08/09 00:40:47;;;;;;;2.17;1.77;;;15.10;99.90;;;;;;5047433;28;20484;-71
2021/08/09 00:43:17;;;;;;;2.27;1.97;;;15.00;99.90;;;;;;5058963;28;20408;-70
2021/08/09 00:45:45;;;;;;;2.40;1.47;;;15.10;1.00;;;;;;5040869;28;20464;-72
2021/08/09 00:48:14;;;;;;;2.53;1.53;;;15.00;99.90;;;;;;5047649;28;20447;-71
2021/08/09 00:50:43;;;;;;;8.20;2.70;;;15.10;99.90;;;;;;5037815;28;20463;-73
2021/08/09 00:53:11;;;;;;;2.77;2.03;;;15.00;91.10;;;;;;5032893;28;20470;-72
2021/08/09 00:55:42;;;;;;;1.70;1.60;;;15.00;99.90;;;;;;5030181;28;20444;-73
2021/08/09 00:58:13;;;;;;;2.80;1.67;;;15.00;1.00;;;;;;5030258;28;20460;-73
2021/08/09 01:00:43;;;;;;;1.73;1.63;;;15.00;99.90;;;;;;5029717;28;20476;-72
2021/08/09 01:03:12;;;;;;;2.67;1.80;;;15.00;99.90;;;;;;5030880;28;20543;-71
2021/08/09 01:05:41;;;;;;;2.40;2.13;;;15.10;1.00;;;;;;5028811;28;20440;-71
2021/08/09 01:08:19;;;;;;;2.37;1.80;;;15.10;99.90;;;;;;5029030;28;20978;-70
2021/08/09 01:10:57;;;;;;;1.57;1.47;;;15.20;99.90;;;;;;5029366;28;20443;-72
2021/08/09 01:13:54;;;;;;;7.93;1.70;;;15.20;1.00;;;;;;5029535;28;20446;-72
2021/08/09 01:16:28;;;;;;;1.87;1.63;;;15.20;1.00;;;;;;5045400;28;20467;-72
2021/08/09 01:19:00;;;;;;;1.80;1.60;;;15.20;1.00;;;;;;5028754;28;20522;-73
2021/08/09 01:21:33;;;;;;;2.30;1.93;;;15.20;1.00;;;;;;5029233;28;20562;-71
2021/08/09 01:24:13;;;;;;;3.20;1.70;;;15.20;1.00;;;;;;5029004;28;20418;-71
2021/08/09 01:26:47;;;;;;;2.10;1.90;;;15.20;1.00;;;;;;5028903;28;20447;-71
2021/08/09 01:29:31;;;;;;;2.10;1.50;;;15.30;1.00;;;;;;5029227;28;20434;-71
2021/08/09 01:32:01;;;;;;;3.63;1.70;;;15.20;48.70;;;;;;5046106;28;20459;-74
2021/08/09 01:34:30;;;;;;;3.07;2.10;;;15.20;1.00;;;;;;5029157;28;20534;-72
2021/08/09 01:37:00;;;;;;;6.07;1.90;;;15.20;1.00;;;;;;5028890;28;20439;-72
2021/08/09 01:39:32;;;;;;;2.60;1.90;;;15.10;1.00;;;;;;5028468;28;20448;-72
2021/08/09 01:42:01;;;;;;;4.87;1.80;;;15.20;11.20;;;;;;5045026;28;20510;-72
2021/08/09 01:44:32;;;;;;;1.63;1.50;;;15.20;1.00;;;;;;5028171;28;20532;-72
2021/08/09 01:47:01;;;;;;;1.73;1.60;;;15.20;1.00;;;;;;5028176;28;20414;-73
2021/08/09 01:49:31;;;;;;;2.13;1.40;;;15.20;1.00;;;;;;5044430;28;20447;-71
2021/08/09 01:52:01;;;;;;;2.27;2.07;;;15.00;1.00;;;;;;5028452;28;20452;-72
2021/08/09 01:54:32;;;;;;;3.03;2.43;;;15.00;99.90;;;;;;5045071;28;20472;-73
2021/08/09 01:57:01;;;;;;;2.00;1.40;;;15.00;57.10;;;;;;5028482;28;20450;-72
2021/08/09 01:59:30;;;;;;;1.90;1.70;;;14.90;1.00;;;;;;5028517;28;20444;-73
2021/08/09 02:01:59;;;;;;;2.20;1.70;;;14.90;99.90;;;;;;5031556;28;20515;-73
2021/08/09 02:04:28;;;;;;;3.90;2.73;;;14.90;1.00;;;;;;5033719;28;20420;-72
2021/08/09 02:06:57;;;;;;;1.80;1.50;;;14.90;94.90;;;;;;5031982;28;20474;-72
2021/08/09 02:09:25;;;;;;;3.40;2.10;;;14.80;1.00;;;;;;5032088;28;20448;-72
2021/08/09 02:12:00;;;;;;;2.90;1.10;;;14.80;1.00;;;;;;5048858;28;20875;-72
2021/08/09 02:14:34;;;;;;;4.87;3.13;;;14.80;1.00;;;;;;5031746;28;20443;-72
2021/08/09 02:17:13;;;;;;;2.13;1.50;;;14.70;1.00;;;;;;5031302;28;20420;-72
2021/08/09 02:19:47;;;;;;;2.30;1.27;;;14.80;1.00;;;;;;5031537;28;20438;-72
2021/08/09 02:22:20;;;;;;;1.90;1.70;;;14.80;1.00;;;;;;5032958;28;20481;-72
2021/08/09 02:24:57;;;;;;;6.30;2.60;;;14.80;1.00;;;;;;5031495;28;21088;-72
2021/08/09 02:27:30;;;;;;;2.40;2.13;;;14.90;99.90;;;;;;5048357;28;20439;-72
2021/08/09 02:30:02;;;;;;;4.60;1.67;;;14.80;99.90;;;;;;5031399;28;20507;-72
2021/08/09 02:32:32;;;;;;;4.43;2.07;;;14.60;99.90;;;;;;5048079;28;20467;-72
2021/08/09 02:35:02;;;;;;;3.30;2.50;;;14.70;1.00;;;;;;5030838;28;20848;-72
2021/08/09 02:37:32;;;;;;;3.50;2.03;;;14.70;99.90;;;;;;5031316;28;20419;-72
2021/08/09 02:40:01;;;;;;;2.07;1.37;;;14.60;99.90;;;;;;5031194;28;20843;-72
2021/08/09 02:42:29;;;;;;;1.70;1.60;;;14.70;1.00;;;;;;5031249;28;20479;-73
2021/08/09 02:45:01;;;;;;;1.97;1.40;;;14.70;1.00;;;;;;5030722;28;20498;-71
2021/08/09 02:47:33;;;;;;;2.63;1.80;;;14.90;1.00;;;;;;5031143;28;20463;-70
2021/08/09 02:50:02;;;;;;;2.60;1.10;;;14.90;99.90;;;;;;5031374;28;20536;-71
2021/08/09 02:52:33;;;;;;;2.57;2.30;;;14.90;99.90;;;;;;5031027;28;20456;-70
2021/08/09 02:55:02;;;;;;;3.47;1.80;;;14.80;99.90;;;;;;5032027;28;21147;-71
2021/08/09 02:57:31;;;;;;;3.60;1.63;;;14.90;99.90;;;;;;5030719;28;20439;-73
2021/08/09 03:00:01;;;;;;;2.23;1.73;;;14.70;99.90;;;;;;5030802;28;20435;-73
2021/08/09 03:02:33;;;;;;;1.57;1.47;;;14.60;99.90;;;;;;5030909;28;20557;-71
2021/08/09 03:05:02;;;;;;;1.60;1.40;;;14.60;99.90;;;;;;5030588;28;20493;-71
2021/08/09 03:07:31;;;;;;;2.53;1.60;;;14.50;1.00;;;;;;5047082;28;20996;-71
2021/08/09 03:09:59;;;;;;;2.10;1.73;;;14.60;1.00;;;;;;5030823;28;20778;-71
2021/08/09 03:12:28;;;;;;;1.50;1.20;;;14.60;1.00;;;;;;5029985;28;20460;-72
2021/08/09 03:14:56;;;;;;;2.70;1.77;;;14.70;99.90;;;;;;5046720;28;20814;-72
2021/08/09 03:17:24;;;;;;;2.33;1.70;;;14.80;1.00;;;;;;5030378;28;21003;-71
2021/08/09 03:19:54;;;;;;;1.67;1.40;;;14.60;1.00;;;;;;5030423;28;20486;-71
2021/08/09 03:22:22;;;;;;;2.37;2.17;;;14.80;1.00;;;;;;5030447;28;20502;-71
2021/08/09 03:24:50;;;;;;;3.83;1.70;;;14.80;99.90;;;;;;5047156;28;20420;-72
2021/08/09 03:27:19;;;;;;;2.30;1.83;;;14.80;99.90;;;;;;5031408;28;20428;-71
2021/08/09 03:29:47;;;;;;;5.30;2.30;;;14.70;99.90;;;;;;5030440;28;20428;-71
2021/08/09 03:32:15;;;;;;;7.37;2.40;;;14.70;99.90;;;;;;5031500;28;20418;-71
2021/08/09 03:34:43;;;;;;;1.73;1.53;;;14.60;99.90;;;;;;5030419;28;20447;-71
2021/08/09 03:37:14;;;;;;;2.17;1.80;;;14.60;99.90;;;;;;5046339;28;20447;-73
2021/08/09 03:39:42;;;;;;;2.27;1.60;;;14.60;99.90;;;;;;5047000;28;20944;-71
2021/08/09 03:42:10;;;;;;;1.83;1.43;;;14.50;99.90;;;;;;5031681;28;20450;-72
2021/08/09 03:44:39;;;;;;;2.13;1.50;;;14.50;1.00;;;;;;5047295;28;20483;-72
2021/08/09 03:47:07;;;;;;;3.03;1.70;;;14.50;99.90;;;;;;5032267;28;20455;-71
2021/08/09 03:49:35;;;;;;;3.87;1.97;;;14.50;99.90;;;;;;5031401;28;20438;-71
2021/08/09 03:52:04;;;;;;;1.67;1.37;;;14.40;99.90;;;;;;5031577;28;20446;-71
2021/08/09 03:54:33;;;;;;;2.60;1.57;;;14.50;1.00;;;;;;5032487;28;20432;-71
2021/08/09 03:57:02;;;;;;;3.40;1.87;;;14.50;1.00;;;;;;5032101;28;20440;-71
2021/08/09 03:59:30;;;;;;;3.50;1.80;;;14.50;99.90;;;;;;5031373;28;20498;-71
2021/08/09 04:01:58;;;;;;;4.13;2.50;;;14.40;99.90;;;;;;5047517;28;20496;-71
2021/08/09 04:04:26;;;;;;;2.60;1.80;;;14.40;1.00;;;;;;5032014;28;20475;-73
2021/08/09 04:06:55;;;;;;;2.87;1.93;;;14.80;1.00;;;;;;5031588;28;20523;-72
2021/08/09 04:09:23;;;;;;;2.30;1.77;;;15.40;99.90;;;;;;5031345;28;20519;-73
2021/08/09 04:11:53;;;;;;;1.90;1.67;;;15.70;99.90;;;;;;5031575;28;20460;-73
2021/08/09 04:14:21;;;;;;;1.83;1.60;;;15.80;99.90;;;;;;5048226;28;20514;-73
2021/08/09 04:16:49;;;;;;;1.63;1.27;;;16.40;99.90;;;;;;5034973;28;20447;-73
2021/08/09 04:19:18;;;;;;;2.27;1.67;;;17.20;99.90;;;;;;5033952;28;20416;-73
2021/08/09 04:21:46;;;;;;;1.50;1.30;;;17.90;99.90;;;;;;5050378;28;20487;-72
2021/08/09 04:24:14;;;;;;;2.10;1.90;;;18.60;99.90;;;;;;5036560;28;20420;-72
2021/08/09 04:26:42;;;;;;;3.30;1.50;;;19.30;99.90;;;;;;5052864;28;20436;-73
2021/08/09 04:29:12;;;;;;;1.70;1.40;;;19.70;99.90;;;;;;5034452;28;20422;-73
2021/08/09 04:31:42;;;;;;;5.10;1.70;;;20.30;99.90;;;;;;5031522;28;20456;-72
2021/08/09 04:34:12;;;;;;;2.30;1.50;;;20.90;99.90;;;;;;5047957;28;20441;-72
2021/08/09 04:36:41;;;;;;;4.50;1.53;;;21.00;99.90;;;;;;5030240;28;20440;-71
2021/08/09 04:39:09;;;;;;;2.80;1.20;;;21.40;99.90;;;;;;5029963;28;20849;-72
2021/08/09 04:41:37;;;;;;;1.53;1.33;;;21.30;99.90;;;;;;5029577;28;20475;-71
2021/08/09 04:44:26;;;;;;;2.33;1.97;;;21.70;99.90;;;;;;5030183;28;20406;-72
2021/08/09 04:46:55;;;;;;;2.83;1.77;;;22.30;99.90;;;;;;5029671;28;20443;-72
2021/08/09 04:49:23;;;;;;;1.47;1.13;;;22.80;99.90;;;;;;5030206;28;20770;-72
2021/08/09 04:51:51;;;;;;;4.80;1.60;;;23.30;99.90;;;;;;5030978;28;20806;-72
2021/08/09 04:54:20;;;;;;;2.60;1.57;;;23.50;99.90;;;;;;5031832;28;20519;-74
2021/08/09 04:56:50;;;;;;;2.20;1.13;;;23.30;99.90;;;;;;5047543;28;20442;-74
2021/08/09 04:59:18;;;;;;;2.50;1.60;;;23.70;99.90;;;;;;5029961;28;20943;-72
2021/08/09 05:01:48;;;;;;;2.03;1.43;;;24.40;99.90;;;;;;5031605;28;20482;-73
2021/08/09 05:04:16;;;;;;;4.67;1.83;;;24.40;99.90;;;;;;5033123;28;20410;-74
2021/08/09 05:06:44;;;;;;;3.67;1.60;;;24.50;99.90;;;;;;5046918;28;20905;-72
2021/08/09 05:09:13;;;;;;;1.60;1.40;;;24.90;99.90;;;;;;5035080;28;20399;-73
2021/08/09 05:11:41;;;;;;;3.17;1.40;;;25.30;99.90;;;;;;5037524;28;20426;-72
2021/08/09 05:14:13;;;;;;;2.20;2.00;;;25.60;99.90;;;;;;5034092;28;20439;-70
2021/08/09 05:16:42;;;;;;;8.93;2.43;;;25.40;99.90;;;;;;5043879;28;20432;-72
2021/08/09 05:19:12;;;;;;;3.23;1.83;;;25.50;99.90;;;;;;5042010;28;20422;-73
2021/08/09 05:21:40;;;;;;;2.90;1.67;;;26.10;99.90;;;;;;5040449;28;20450;-71
2021/08/09 05:24:08;;;;;;;2.17;1.57;;;25.90;99.90;;;;;;5042265;28;20403;-72
2021/08/09 05:26:38;;;;;;;3.97;1.70;;;25.70;99.90;;;;;;5044101;28;20410;-72
2021/08/09 05:29:06;;;;;;;2.87;1.73;;;25.00;99.90;;;;;;5061011;28;20485;-72
2021/08/09 05:31:35;;;;;;;4.00;1.83;;;23.00;99.90;;;;;;5040762;28;20417;-72
2021/08/09 05:34:03;;;;;;;2.90;1.50;;;21.50;99.90;;;;;;5044705;28;20402;-73
2021/08/09 05:36:36;;;;;;;2.73;1.93;;;20.30;99.90;;;;;;5053070;28;20497;-72
2021/08/09 05:39:09;;;;;;;2.17;1.67;;;19.40;99.90;;;;;;5054169;28;20431;-73
2021/08/09 05:41:38;;;;;;;2.77;2.20;;;18.70;99.90;;;;;;5054079;28;20498;-73
2021/08/09 05:44:08;;;;;;;5.30;2.07;;;18.20;99.90;;;;;;5037226;28;20442;-70
2021/08/09 05:46:39;;;;;;;4.07;2.40;;;18.00;99.90;;;;;;5052911;28;20440;-72
2021/08/09 05:49:08;;;;;;;2.00;1.70;;;17.90;99.90;;;;;;5036805;28;20411;-71
2021/08/09 05:51:40;;;;;;;3.00;1.80;;;17.80;99.90;;;;;;5038658;28;20510;-72
2021/08/09 05:54:10;;;;;;;3.10;2.17;;;17.80;99.90;;;;;;5040264;28;20421;-71
2021/08/09 05:56:38;;;;;;;2.47;1.67;;;17.70;99.90;;;;;;5041366;28;20515;-71
2021/08/09 05:59:08;;;;;;;2.77;1.70;;;17.60;99.90;;;;;;5058564;28;20422;-73
2021/08/09 06:01:36;;;;;;;4.23;2.23;;;17.40;99.90;;;;;;5039373;28;20808;-70
2021/08/09 06:04:05;;;;;;;6.10;2.23;;;17.30;99.90;;;;;;5039298;28;20502;-72
2021/08/09 06:06:34;;;;;;;3.00;1.70;;;17.60;99.90;;;;;;5038176;28;20487;-73
2021/08/09 06:09:22;;;;;;;2.20;1.60;;;17.80;99.90;;;;;;5040360;28;20440;-72
2021/08/09 06:11:51;;;;;;;1.50;1.40;;;17.80;99.90;;;;;;5035981;28;20509;-72
2021/08/09 06:14:20;;;;;;;3.10;1.37;;;17.80;99.90;;;;;;5038612;28;20399;-72
2021/08/09 06:16:48;;;;;;;2.80;2.50;;;18.00;99.90;;;;;;5039057;28;20466;-72
2021/08/09 06:19:19;;;;;;;2.60;2.40;;;18.20;99.90;;;;;;5036784;28;20476;-72
2021/08/09 06:21:47;;;;;;;6.50;1.77;;;18.30;99.90;;;;;;5037784;28;21078;-72
2021/08/09 06:24:15;;;;;;;2.77;2.57;;;18.30;99.90;;;;;;5039979;28;20462;-71
2021/08/09 06:26:47;;;;;;;2.87;2.50;;;18.40;99.90;;;;;;5048982;28;20804;-71
2021/08/09 06:29:16;;;;;;;1.90;1.70;;;18.50;99.90;;;;;;5033047;28;20429;-71
2021/08/09 06:31:45;;;;;;;3.07;1.50;;;18.60;99.90;;;;;;5032314;28;20426;-70
2021/08/09 06:34:15;;;;;;;3.83;1.80;;;18.80;99.90;;;;;;5048843;28;20509;-71
2021/08/09 06:36:43;;;;;;;6.60;2.37;;;18.90;99.90;;;;;;5031790;28;20436;-70
2021/08/09 06:39:15;;;;;;;3.10;2.30;;;19.00;99.90;;;;;;5032447;28;20502;-71
2021/08/09 06:41:44;;;;;;;3.50;2.00;;;18.90;99.90;;;;;;5032087;28;20490;-71
2021/08/09 06:44:22;;;;;;;3.03;2.00;;;18.80;99.90;;;;;;5032055;28;20438;-71
2021/08/09 06:46:50;;;;;;;2.17;1.93;;;18.90;99.90;;;;;;5031182;28;20411;-71
2021/08/09 06:49:20;;;;;;;2.30;2.10;;;19.00;99.90;;;;;;5031661;28;20403;-71
2021/08/09 06:51:48;;;;;;;2.90;1.67;;;18.90;99.90;;;;;;5032960;28;20421;-71
2021/08/09 06:54:19;;;;;;;2.60;1.60;;;19.20;99.90;;;;;;5031718;28;20411;-70
2021/08/09 06:56:48;;;;;;;2.30;1.70;;;19.30;99.90;;;;;;5047993;28;20848;-70
2021/08/09 06:59:17;;;;;;;5.80;4.03;;;19.40;99.90;;;;;;5033346;28;20375;-71
2021/08/09 07:01:48;;;;;;;3.93;1.93;;;19.60;99.90;;;;;;5031535;28;20448;-71
2021/08/09 07:04:16;;;;;;;4.33;2.60;;;19.90;99.90;;;;;;5032517;28;20469;-71
2021/08/09 07:06:48;;;;;;;4.03;2.90;;;20.10;99.90;;;;;;5031596;28;20403;-71
2021/08/09 07:09:18;;;;;;;4.07;2.20;;;20.10;99.90;;;;;;5031637;28;20426;-71
2021/08/09 07:11:46;;;;;;;3.30;1.97;;;19.90;99.90;;;;;;5031215;28;20455;-71
2021/08/09 07:14:18;;;;;;;2.83;1.77;;;19.90;99.90;;;;;;5033678;28;20421;-72
2021/08/09 07:16:49;;;;;;;4.13;2.53;;;20.00;99.90;;;;;;5032932;28;20428;-72
2021/08/09 07:19:18;;;;;;;3.10;1.90;;;20.10;99.90;;;;;;5047791;28;20954;-71
2021/08/09 07:21:46;;;;;;;2.30;1.67;;;20.30;99.90;;;;;;5030243;28;20570;-71
2021/08/09 07:24:15;;;;;;;3.00;2.27;;;20.40;99.90;;;;;;5047486;28;20471;-72
2021/08/09 07:26:44;;;;;;;4.00;1.70;;;20.10;99.90;;;;;;5030166;28;20872;-72
2021/08/09 07:29:13;;;;;;;1.60;1.40;;;20.10;99.90;;;;;;5030857;28;20472;-71
2021/08/09 07:31:42;;;;;;;2.33;1.70;;;20.10;99.90;;;;;;5046978;28;20459;-70
2021/08/09 07:34:12;;;;;;;2.30;1.60;;;20.30;99.90;;;;;;5030256;28;20506;-71
2021/08/09 07:36:40;;;;;;;4.20;1.83;;;20.40;99.90;;;;;;5031258;28;20439;-72
2021/08/09 07:39:08;;;;;;;2.90;2.30;;;20.40;99.90;;;;;;5030084;28;20447;-71
2021/08/09 07:41:38;;;;;;;2.93;1.67;;;20.70;99.90;;;;;;5029989;28;20484;-69
2021/08/09 07:44:07;;;;;;;2.30;1.90;;;21.00;99.90;;;;;;5029974;28;20442;-69
2021/08/09 07:46:35;;;;;;;2.23;1.73;;;20.80;99.90;;;;;;5029540;28;20432;-71
2021/08/09 07:49:03;;;;;;;3.40;2.30;;;20.70;99.90;;;;;;5046639;28;20445;-71
2021/08/09 07:51:35;;;;;;;3.10;1.80;;;21.00;99.90;;;;;;5029909;28;20537;-71
2021/08/09 07:54:04;;;;;;;1.67;1.57;;;21.20;99.90;;;;;;5030100;28;20403;-71
2021/08/09 07:56:32;;;;;;;3.77;2.40;;;21.20;99.90;;;;;;5029443;28;20415;-71
2021/08/09 07:59:01;;;;;;;1.90;1.63;;;21.50;99.90;;;;;;5029534;28;20447;-72
2021/08/09 08:01:29;;;;;;;4.10;1.93;;;21.70;99.90;;;;;;5029819;28;20470;-72
2021/08/09 08:03:58;;;;;;;2.40;1.43;;;21.60;99.90;;;;;;5030175;28;20542;-71
2021/08/09 08:06:27;;;;;;;2.70;1.90;;;21.50;99.90;;;;;;5029445;28;20438;-71
2021/08/09 08:08:56;;;;;;;5.60;2.03;;;21.50;99.90;;;;;;5029847;28;20462;-70
2021/08/09 08:11:28;;;;;;;2.53;1.57;;;21.40;99.90;;;;;;5029808;28;20431;-71
2021/08/09 08:13:56;;;;;;;2.47;2.20;;;21.30;99.90;;;;;;5029483;28;20494;-71
2021/08/09 08:16:25;;;;;;;2.37;1.70;;;21.10;99.90;;;;;;5029523;28;20829;-69
2021/08/09 08:18:53;;;;;;;1.40;1.20;;;20.70;99.90;;;;;;5029378;28;20433;-71
2021/08/09 08:21:23;;;;;;;2.23;1.87;;;20.30;99.90;;;;;;5046214;28;20437;-72
2021/08/09 08:23:51;;;;;;;3.47;2.20;;;20.00;99.90;;;;;;5029412;28;20464;-69
2021/08/09 08:26:21;;;;;;;2.63;1.93;;;20.00;99.90;;;;;;5029914;28;20443;-70
2021/08/09 08:28:49;;;;;;;7.37;3.47;;;20.30;99.90;;;;;;5031108;28;20520;-71
2021/08/09 08:31:17;;;;;;;2.10;1.37;;;20.40;99.90;;;;;;5030601;28;20451;-72
2021/08/09 08:33:45;;;;;;;5.93;1.80;;;20.70;99.90;;;;;;5029385;28;20438;-71
2021/08/09 08:36:15;;;;;;;5.40;1.87;;;20.70;99.90;;;;;;5029030;28;20455;-72
2021/08/09 08:38:44;;;;;;;3.20;1.70;;;20.70;99.90;;;;;;5028906;28;20490;-72
2021/08/09 08:41:17;;;;;;;3.00;2.20;;;20.70;99.90;;;;;;5029434;28;20459;-70
2021/08/09 08:43:47;;;;;;;2.50;2.13;;;20.60;99.90;;;;;;5029696;28;20559;-71
2021/08/09 08:46:18;;;;;;;3.00;2.00;;;20.50;99.90;;;;;;5029266;28;20786;-72
2021/08/09 08:48:47;;;;;;;2.77;2.07;;;20.70;99.90;;;;;;5029727;28;20449;-72
2021/08/09 08:51:24;;;;;;;3.10;2.60;;;21.00;99.90;;;;;;5029020;28;20441;-70
2021/08/09 08:53:55;;;;;;;5.47;2.53;;;21.20;99.90;;;;;;5045493;28;20787;-71
2021/08/09 08:56:23;;;;;;;2.53;2.00;;;21.30;99.90;;;;;;5029848;28;20828;-73
2021/08/09 08:58:53;;;;;;;3.07;2.33;;;21.30;99.90;;;;;;5030555;28;20431;-72
2021/08/09 09:01:35;;;;;;;2.47;2.27;;;21.20;99.90;;;;;;5030702;28;20415;-72
2021/08/09 09:04:23;;;;;;;3.70;2.13;;;21.50;99.90;;;;;;5031016;28;20456;-72
2021/08/09 09:07:00;;;;;;;2.10;1.73;;;21.60;99.90;;;;;;5029402;28;20428;-71
2021/08/09 09:09:31;;;;;;;3.13;2.20;;;21.60;99.90;;;;;;5028200;28;20411;-71
2021/08/09 09:12:00;;;;;;;5.50;2.47;;;21.70;99.90;;;;;;5029555;28;20490;-72
2021/08/09 09:14:32;;;;;;;5.67;3.70;;;21.80;99.90;;;;;;5030531;28;20422;-72
2021/08/09 09:17:00;;;;;;;2.83;1.60;;;21.90;99.90;;;;;;5029885;28;20768;-72
2021/08/09 09:19:38;;;;;;;2.70;2.50;;;21.80;99.90;;;;;;5030247;28;20391;-73
2021/08/09 09:22:08;;;;;;;2.20;1.93;;;22.00;99.90;;;;;;5030259;28;20480;-71
2021/08/09 09:24:46;;;;;;;3.63;1.73;;;22.30;99.90;;;;;;5030019;28;20445;-71
2021/08/09 09:27:27;;;;;;;3.33;1.90;;;22.20;99.90;;;;;;5029546;28;20420;-71
2021/08/09 09:29:57;;;;;;;3.83;1.63;;;22.30;99.90;;;;;;5029728;28;20795;-71
2021/08/09 09:32:26;;;;;;;3.20;2.30;;;22.60;99.90;;;;;;5029737;28;20420;-72
2021/08/09 09:34:55;;;;;;;3.30;1.87;;;22.70;99.90;;;;;;5030148;28;20839;-72
2021/08/09 09:37:27;;;;;;;3.00;1.83;;;22.90;99.90;;;;;;5028490;28;20901;-69
2021/08/09 09:40:06;;;;;;;2.47;1.83;;;22.60;99.90;;;;;;5030518;28;20412;-71
2021/08/09 09:42:36;;;;;;;2.23;1.70;;;22.70;99.90;;;;;;5029424;28;20466;-71
2021/08/09 09:45:21;;;;;;;3.60;1.80;;;22.90;99.90;;;;;;5028416;28;20477;-71
2021/08/09 09:48:03;;;;;;;1.80;1.50;;;23.00;99.90;;;;;;5030081;28;20430;-70
2021/08/09 09:50:32;;;;;;;2.93;1.93;;;23.10;99.90;;;;;;5031258;28;20405;-71
2021/08/09 09:53:16;;;;;;;2.13;1.93;;;23.30;99.90;;;;;;5029457;28;20379;-72
2021/08/09 09:55:47;;;;;;;4.80;3.80;;;23.50;99.90;;;;;;5039114;28;20425;-71
2021/08/09 09:58:16;;;;;;;4.20;2.60;;;23.50;99.90;;;;;;5041290;28;20496;-70
2021/08/09 10:00:47;;;;;;;2.77;2.07;;;23.30;99.90;;;;;;5041006;28;20443;-71
2021/08/09 10:03:16;;;;;;;3.83;2.00;;;23.20;99.90;;;;;;5033325;28;20990;-72
2021/08/09 10:05:46;;;;;;;3.00;2.17;;;23.20;99.90;;;;;;5031766;28;21073;-71
2021/08/09 10:08:16;;;;;;;4.67;2.10;;;23.20;99.90;;;;;;5031284;28;20432;-72
2021/08/09 10:10:47;;;;;;;4.57;3.13;;;23.10;99.90;;;;;;5031395;28;20448;-71
2021/08/09 10:13:18;;;;;;;4.53;2.80;;;23.00;99.90;;;;;;5055206;28;20432;-71
2021/08/09 10:15:51;;;;;;;2.63;1.90;;;22.80;99.90;;;;;;5038989;28;20424;-71
2021/08/09 10:18:25;;;;;;;3.50;2.90;;;22.80;99.90;;;;;;5031102;28;20511;-69
2021/08/09 10:20:54;;;;;;;5.53;2.30;;;22.90;99.90;;;;;;5030281;28;20534;-72
2021/08/09 10:23:42;;;;;;;1.90;1.57;;;22.80;99.90;;;;;;5031776;28;20811;-72
2021/08/09 10:26:12;;;;;;;3.60;2.20;;;22.90;99.90;;;;;;5032769;28;20474;-72
2021/08/09 10:29:06;;;;;;;2.10;1.70;;;23.10;99.90;;;;;;5031815;28;20430;-71
2021/08/09 10:31:40;;;;;;;3.03;1.73;;;23.10;99.90;;;;;;5031698;28;20483;-71
2021/08/09 10:34:10;;;;;;;3.63;1.43;;;23.30;99.90;;;;;;5033195;28;20523;-71
2021/08/09 10:37:05;;;;;;;2.10;1.80;;;23.60;99.90;;;;;;5032232;28;20383;-72
2021/08/09 10:39:57;;;;;;;3.93;1.90;;;23.70;99.90;;;;;;5033118;28;20427;-71
2021/08/09 10:42:39;;;;;;;3.90;1.70;;;23.70;99.90;;;;;;5032826;28;20440;-71
2021/08/09 10:45:09;;;;;;;2.63;1.23;;;23.60;99.90;;;;;;5048126;28;20478;-71
2021/08/09 10:47:58;;;;;;;2.40;1.90;;;23.80;99.90;;;;;;5032574;28;20782;-73
2021/08/09 10:50:52;;;;;;;3.40;1.70;;;23.80;99.90;;;;;;5032541;28;20424;-74
2021/08/09 10:53:41;;;;;;;4.90;1.70;;;24.00;99.90;;;;;;5031601;28;20462;-71
2021/08/09 10:56:09;;;;;;;3.90;3.03;;;23.90;99.90;;;;;;5032659;28;20475;-71
2021/08/09 10:58:56;;;;;;;2.40;1.43;;;23.60;99.90;;;;;;5033577;28;20403;-73
2021/08/09 11:01:26;;;;;;;3.57;1.70;;;24.10;99.90;;;;;;5032579;28;20985;-71
2021/08/09 11:04:16;;;;;;;3.63;2.40;;;24.40;99.90;;;;;;5032366;28;20421;-71
2021/08/09 11:06:50;;;;;;;2.50;1.70;;;24.20;99.90;;;;;;5031612;28;20837;-71
2021/08/09 11:09:43;;;;;;;2.87;1.50;;;24.30;99.90;;;;;;5032189;28;20447;-72
2021/08/09 11:12:19;;;;;;;2.13;1.93;;;24.10;99.90;;;;;;5026752;28;21033;-72
2021/08/09 11:15:14;;;;;;;3.17;2.40;;;24.50;99.90;;;;;;5030845;28;20432;-70
2021/08/09 11:17:48;;;;;;;2.43;1.20;;;24.90;99.90;;;;;;5032422;28;20777;-74
2021/08/09 11:20:20;;;;;;;9.23;2.20;;;25.10;99.90;;;;;;5031768;28;20524;-72
2021/08/09 11:22:56;;;;;;;2.70;1.37;;;25.10;99.90;;;;;;5032192;28;20432;-72
2021/08/09 11:25:31;;;;;;;3.23;1.20;;;25.30;99.90;;;;;;5031872;28;20967;-72
2021/08/09 11:28:02;;;;;;;2.13;1.10;;;25.60;99.90;;;;;;5032353;28;20431;-72
2021/08/09 11:30:41;;;;;;;2.70;1.10;;;25.70;99.90;;;;;;5031892;28;20498;-71
2021/08/09 11:33:29;;;;;;;2.33;1.20;;;25.30;99.90;;;;;;5031649;28;20416;-71
2021/08/09 11:36:01;;;;;;;2.40;1.70;;;25.30;99.90;;;;;;5031385;28;20434;-70
2021/08/09 11:38:31;;;;;;;4.07;1.90;;;25.20;99.90;;;;;;5032523;28;20435;-69
2021/08/09 11:41:04;;;;;;;4.03;2.13;;;25.10;99.90;;;;;;5031669;28;20506;-72
2021/08/09 11:43:34;;;;;;;2.20;1.40;;;25.30;99.90;;;;;;5031823;28;20494;-72
2021/08/09 11:46:05;;;;;;;4.97;2.73;;;25.20;99.90;;;;;;5032311;28;20464;-72
2021/08/09 11:48:35;;;;;;;4.40;2.50;;;25.00;99.90;;;;;;5033949;28;20436;-71
2021/08/09 11:51:06;;;;;;;2.97;1.60;;;25.50;99.90;;;;;;5034304;28;20470;-72
2021/08/09 11:53:47;;;;;;;2.90;2.13;;;25.90;99.90;;;;;;5034167;28;20426;-72
2021/08/09 11:56:18;;;;;;;1.77;1.47;;;25.50;99.90;;;;;;5083899;22;20490;-84
2021/08/09 11:58:47;;;;;;;4.63;3.07;;;25.60;99.90;;;;;;5076021;28;20438;-84
2021/08/09 12:01:21;;;;;;;2.43;1.63;;;26.00;99.90;;;;;;5074263;28;20540;-83
2021/08/09 12:04:06;;;;;;;2.87;1.60;;;25.70;99.90;;;;;;5069080;28;20424;-82
2021/08/09 12:06:46;;;;;;;2.70;1.40;;;25.90;99.90;;;;;;5045318;28;20467;-83
2021/08/09 12:09:16;;;;;;;2.90;1.60;;;26.00;99.90;;;;;;5041610;28;20440;-83
2021/08/09 12:11:57;;;;;;;1.83;1.30;;;25.90;99.90;;;;;;5043203;28;20458;-82
2021/08/09 12:14:25;;;;;;;2.37;1.50;;;25.90;99.90;;;;;;5037831;28;20481;-84
2021/08/09 12:16:55;;;;;;;3.33;1.30;;;25.50;99.90;;;;;;5037530;28;20459;-84
2021/08/09 12:19:37;;;;;;;1.77;1.53;;;25.30;99.90;;;;;;5037169;28;20416;-83
2021/08/09 12:22:12;;;;;;;2.90;1.67;;;25.60;99.90;;;;;;5037524;28;20804;-83
2021/08/09 12:24:40;;;;;;;1.67;1.20;;;26.10;99.90;;;;;;5038174;28;20728;-84
2021/08/09 12:27:17;;;;;;;1.70;1.37;;;26.10;99.90;;;;;;5037091;28;20490;-83
2021/08/09 12:30:02;;;;;;;2.00;1.70;;;26.00;99.90;;;;;;5035955;28;20435;-83
2021/08/09 12:32:31;;;;;;;2.40;1.67;;;26.00;99.90;;;;;;5037310;28;20470;-83
2021/08/09 12:35:00;;;;;;;2.00;1.80;;;25.70;99.90;;;;;;5036645;28;20402;-84
2021/08/09 12:37:29;;;;;;;2.23;1.60;;;25.90;99.90;;;;;;5036930;28;20478;-83
2021/08/09 12:40:17;;;;;;;2.27;1.53;;;25.90;99.90;;;;;;5037289;28;20420;-81
2021/08/09 12:43:05;;;;;;;2.40;2.10;;;25.80;99.90;;;;;;5037160;28;20443;-84
2021/08/09 12:45:34;;;;;;;3.83;1.90;;;25.80;99.90;;;;;;5036736;28;20476;-83
2021/08/09 12:48:04;;;;;;;3.30;1.60;;;25.80;99.90;;;;;;5043178;28;20404;-82
2021/08/09 12:50:32;;;;;;;4.30;1.87;;;25.60;99.90;;;;;;5044673;28;20483;-82
2021/08/09 12:53:07;;;;;;;4.20;2.60;;;25.70;99.90;;;;;;5044057;28;20404;-83
2021/08/09 12:55:38;;;;;;;2.90;1.63;;;25.90;99.90;;;;;;5043855;28;20488;-82
2021/08/09 12:58:07;;;;;;;2.50;1.67;;;26.20;99.90;;;;;;5043563;28;20434;-84
2021/08/09 13:00:36;;;;;;;3.13;2.13;;;25.90;99.90;;;;;;5036192;28;20433;-83
2021/08/09 13:03:05;;;;;;;3.70;1.63;;;25.80;99.90;;;;;;5038601;28;20510;-83
2021/08/09 13:05:36;;;;;;;3.70;2.37;;;26.10;99.90;;;;;;5037254;28;20456;-82
2021/08/09 13:08:07;;;;;;;2.47;1.80;;;26.50;99.90;;;;;;5040080;28;20434;-85
2021/08/09 13:10:35;;;;;;;2.47;1.80;;;26.10;99.90;;;;;;5045317;28;20423;-83